sensor_id;sensor_type;location;lat;lon;timestamp;temperature;humidity
24614;DHT22;12760;46.296;25.290;2023-02-07T00:00:44;-5.60;99.90
24614;DHT22;12760;46.296;25.290;2023-02-07T00:03:09;-5.60;99.90
24614;DHT22;12760;46.296;25.290;2023-02-07T00:05:35;-5.50;99.90
24614;DHT22;12760;46.296;25.290;2023-02-07T00:08:05;-5.50;99.90
24614;DHT22;12760;46.296;25.290;2023-02-07T00:10:32;-5.50;99.90
24614;DHT22;12760;46.296;25.290;2023-02-07T00:12:58;-5.50;99.90
24614;DHT22;12760;46.296;25.290;2023-02-07T00:15:24;-5.40;99.90
24614;DHT22;12760;46.296;25.290;2023-02-07T00:17:50;-5.40;99.90
24614;DHT22;12760;46.296;25.290;2023-02-07T00:20:16;-5.50;99.90
24614;DHT22;12760;46.296;25.290;2023-02-07T00:22:43;-5.50;99.90
24614;DHT22;12760;46.296;25.290;2023-02-07T00:25:10;-5.60;99.90
24614;DHT22;12760;46.296;25.290;2023-02-07T00:27:36;-5.70;99.90
24614;DHT22;12760;46.296;25.290;2023-02-07T00:30:02;-5.80;99.90
24614;DHT22;12760;46.296;25.290;2023-02-07T00:32:32;-5.90;99.90
24614;DHT22;12760;46.296;25.290;2023-02-07T00:34:59;-6.00;99.90
24614;DHT22;12760;46.296;25.290;2023-02-07T00:37:25;-6.00;99.90
24614;DHT22;12760;46.296;25.290;2023-02-07T00:39:51;-6.00;99.90
24614;DHT22;12760;46.296;25.290;2023-02-07T00:42:17;-6.00;99.90
24614;DHT22;12760;46.296;25.290;2023-02-07T00:44:42;-6.00;99.90
24614;DHT22;12760;46.296;25.290;2023-02-07T00:47:08;-6.10;99.90
24614;DHT22;12760;46.296;25.290;2023-02-07T00:49:34;-6.00;99.90
24614;DHT22;12760;46.296;25.290;2023-02-07T00:51:59;-6.00;99.90
24614;DHT22;12760;46.296;25.290;2023-02-07T00:54:25;-6.10;99.90
24614;DHT22;12760;46.296;25.290;2023-02-07T00:56:51;-6.10;99.90
24614;DHT22;12760;46.296;25.290;2023-02-07T00:59:16;-6.00;99.90
24614;DHT22;12760;46.296;25.290;2023-02-07T01:01:42;-6.00;99.90
24614;DHT22;12760;46.296;25.290;2023-02-07T01:04:08;-6.00;99.90
24614;DHT22;12760;46.296;25.290;2023-02-07T01:06:33;-5.90;99.90
24614;DHT22;12760;46.296;25.290;2023-02-07T01:09:02;-6.00;99.90
24614;DHT22;12760;46.296;25.290;2023-02-07T01:11:28;-6.00;99.90
24614;DHT22;12760;46.296;25.290;2023-02-07T01:13:54;-6.00;99.90
24614;DHT22;12760;46.296;25.290;2023-02-07T01:16:24;-6.00;99.90
24614;DHT22;12760;46.296;25.290;2023-02-07T01:18:50;-5.90;99.90
24614;DHT22;12760;46.296;25.290;2023-02-07T01:21:22;-5.90;99.90
24614;DHT22;12760;46.296;25.290;2023-02-07T01:23:48;-6.00;99.90
24614;DHT22;12760;46.296;25.290;2023-02-07T01:26:14;-6.00;99.90
24614;DHT22;12760;46.296;25.290;2023-02-07T01:28:40;-6.20;99.90
24614;DHT22;12760;46.296;25.290;2023-02-07T01:31:08;-6.30;99.90
24614;DHT22;12760;46.296;25.290;2023-02-07T01:33:34;-6.40;99.90
24614;DHT22;12760;46.296;25.290;2023-02-07T01:36:07;-6.40;99.90
24614;DHT22;12760;46.296;25.290;2023-02-07T01:38:33;-6.30;99.90
24614;DHT22;12760;46.296;25.290;2023-02-07T01:40:59;-6.40;99.90
24614;DHT22;12760;46.296;25.290;2023-02-07T01:43:25;-6.40;99.90
24614;DHT22;12760;46.296;25.290;2023-02-07T01:45:51;-6.40;99.90
24614;DHT22;12760;46.296;25.290;2023-02-07T01:48:24;-6.60;99.90
24614;DHT22;12760;46.296;25.290;2023-02-07T01:50:52;-6.60;99.90
24614;DHT22;12760;46.296;25.290;2023-02-07T01:53:22;-6.60;99.90
24614;DHT22;12760;46.296;25.290;2023-02-07T01:55:51;-6.60;99.90
24614;DHT22;12760;46.296;25.290;2023-02-07T01:58:19;-6.60;99.90
24614;DHT22;12760;46.296;25.290;2023-02-07T02:00:45;-6.60;99.90
24614;DHT22;12760;46.296;25.290;2023-02-07T02:03:11;-6.50;99.90
24614;DHT22;12760;46.296;25.290;2023-02-07T02:05:38;-6.50;99.90
24614;DHT22;12760;46.296;25.290;2023-02-07T02:08:04;-6.40;99.90
24614;DHT22;12760;46.296;25.290;2023-02-07T02:24:57;-6.50;99.90
24614;DHT22;12760;46.296;25.290;2023-02-07T02:40:49;-6.50;99.90
24614;DHT22;12760;46.296;25.290;2023-02-07T02:46:19;-6.60;99.90
24614;DHT22;12760;46.296;25.290;2023-02-07T02:48:45;-6.70;99.90
24614;DHT22;12760;46.296;25.290;2023-02-07T02:51:12;-6.70;99.90
24614;DHT22;12760;46.296;25.290;2023-02-07T02:53:38;-6.60;99.90
24614;DHT22;12760;46.296;25.290;2023-02-07T02:59:07;-6.60;99.90
24614;DHT22;12760;46.296;25.290;2023-02-07T03:01:49;-6.60;99.90
24614;DHT22;12760;46.296;25.290;2023-02-07T03:07:31;-6.70;99.90
24614;DHT22;12760;46.296;25.290;2023-02-07T03:10:18;-6.80;99.90
24614;DHT22;12760;46.296;25.290;2023-02-07T03:18:41;-6.90;99.90
24614;DHT22;12760;46.296;25.290;2023-02-07T03:21:36;-6.90;99.90
24614;DHT22;12760;46.296;25.290;2023-02-07T03:24:16;-6.90;99.90
24614;DHT22;12760;46.296;25.290;2023-02-07T03:26:44;-6.90;99.90
24614;DHT22;12760;46.296;25.290;2023-02-07T03:29:12;-7.00;99.90
24614;DHT22;12760;46.296;25.290;2023-02-07T03:31:41;-7.00;99.90
24614;DHT22;12760;46.296;25.290;2023-02-07T03:34:13;-7.00;99.90
24614;DHT22;12760;46.296;25.290;2023-02-07T03:36:57;-7.00;99.90
24614;DHT22;12760;46.296;25.290;2023-02-07T03:39:25;-7.10;99.90
24614;DHT22;12760;46.296;25.290;2023-02-07T03:41:54;-6.90;99.90
24614;DHT22;12760;46.296;25.290;2023-02-07T03:44:23;-7.00;99.90
24614;DHT22;12760;46.296;25.290;2023-02-07T03:46:51;-7.00;99.90
24614;DHT22;12760;46.296;25.290;2023-02-07T03:49:17;-7.00;99.90
24614;DHT22;12760;46.296;25.290;2023-02-07T03:51:43;-6.90;99.90
24614;DHT22;12760;46.296;25.290;2023-02-07T03:54:09;-7.00;99.90
24614;DHT22;12760;46.296;25.290;2023-02-07T03:56:36;-7.00;99.90
24614;DHT22;12760;46.296;25.290;2023-02-07T03:59:02;-6.90;99.90
24614;DHT22;12760;46.296;25.290;2023-02-07T04:01:28;-6.90;99.90
24614;DHT22;12760;46.296;25.290;2023-02-07T04:03:53;-6.90;99.90
24614;DHT22;12760;46.296;25.290;2023-02-07T04:06:19;-6.90;99.90
24614;DHT22;12760;46.296;25.290;2023-02-07T04:08:45;-7.00;99.90
24614;DHT22;12760;46.296;25.290;2023-02-07T04:11:10;-7.10;99.90
24614;DHT22;12760;46.296;25.290;2023-02-07T04:13:36;-7.20;99.90
24614;DHT22;12760;46.296;25.290;2023-02-07T04:16:04;-7.10;99.90
24614;DHT22;12760;46.296;25.290;2023-02-07T04:18:30;-7.00;99.90
24614;DHT22;12760;46.296;25.290;2023-02-07T04:21:00;-7.00;99.90
24614;DHT22;12760;46.296;25.290;2023-02-07T04:23:26;-7.00;99.90
24614;DHT22;12760;46.296;25.290;2023-02-07T04:25:52;-7.00;99.90
24614;DHT22;12760;46.296;25.290;2023-02-07T04:28:17;-6.90;99.90
24614;DHT22;12760;46.296;25.290;2023-02-07T04:30:43;-6.90;99.90
24614;DHT22;12760;46.296;25.290;2023-02-07T04:33:09;-7.00;99.90
24614;DHT22;12760;46.296;25.290;2023-02-07T04:35:34;-7.20;99.90
24614;DHT22;12760;46.296;25.290;2023-02-07T04:38:00;-7.30;99.90
24614;DHT22;12760;46.296;25.290;2023-02-07T04:40:26;-7.20;99.90
24614;DHT22;12760;46.296;25.290;2023-02-07T04:42:52;-7.10;99.90
24614;DHT22;12760;46.296;25.290;2023-02-07T04:45:17;-7.00;99.90
24614;DHT22;12760;46.296;25.290;2023-02-07T04:47:43;-7.00;99.90
24614;DHT22;12760;46.296;25.290;2023-02-07T04:50:09;-7.00;99.90
24614;DHT22;12760;46.296;25.290;2023-02-07T04:52:35;-7.00;99.90
24614;DHT22;12760;46.296;25.290;2023-02-07T04:55:01;-7.10;99.90
24614;DHT22;12760;46.296;25.290;2023-02-07T04:57:27;-7.00;99.90
24614;DHT22;12760;46.296;25.290;2023-02-07T04:59:52;-7.10;99.90
24614;DHT22;12760;46.296;25.290;2023-02-07T05:02:18;-7.10;99.90
24614;DHT22;12760;46.296;25.290;2023-02-07T05:04:43;-7.10;99.90
24614;DHT22;12760;46.296;25.290;2023-02-07T05:07:09;-7.10;99.90
24614;DHT22;12760;46.296;25.290;2023-02-07T05:09:35;-7.00;99.90
24614;DHT22;12760;46.296;25.290;2023-02-07T05:12:01;-7.00;99.90
24614;DHT22;12760;46.296;25.290;2023-02-07T05:14:26;-6.90;99.90
24614;DHT22;12760;46.296;25.290;2023-02-07T05:16:52;-6.90;99.90
24614;DHT22;12760;46.296;25.290;2023-02-07T05:19:18;-6.90;99.90
24614;DHT22;12760;46.296;25.290;2023-02-07T05:21:43;-6.90;99.90
24614;DHT22;12760;46.296;25.290;2023-02-07T05:24:09;-6.90;99.90
24614;DHT22;12760;46.296;25.290;2023-02-07T05:26:35;-6.90;99.90
24614;DHT22;12760;46.296;25.290;2023-02-07T05:29:00;-6.80;99.90
24614;DHT22;12760;46.296;25.290;2023-02-07T05:31:26;-6.80;99.90
24614;DHT22;12760;46.296;25.290;2023-02-07T05:34:12;-6.70;99.90
24614;DHT22;12760;46.296;25.290;2023-02-07T05:36:37;-6.70;99.90
24614;DHT22;12760;46.296;25.290;2023-02-07T05:39:03;-6.70;99.90
24614;DHT22;12760;46.296;25.290;2023-02-07T05:41:29;-6.70;99.90
24614;DHT22;12760;46.296;25.290;2023-02-07T05:43:55;-6.70;99.90
24614;DHT22;12760;46.296;25.290;2023-02-07T05:46:20;-6.70;99.90
24614;DHT22;12760;46.296;25.290;2023-02-07T05:48:46;-6.70;99.90
24614;DHT22;12760;46.296;25.290;2023-02-07T05:51:12;-6.60;99.90
24614;DHT22;12760;46.296;25.290;2023-02-07T05:53:37;-6.80;99.90
24614;DHT22;12760;46.296;25.290;2023-02-07T05:56:03;-6.80;99.90
24614;DHT22;12760;46.296;25.290;2023-02-07T05:58:29;-6.80;99.90
24614;DHT22;12760;46.296;25.290;2023-02-07T06:00:55;-6.90;99.90
24614;DHT22;12760;46.296;25.290;2023-02-07T06:03:20;-6.90;99.90
24614;DHT22;12760;46.296;25.290;2023-02-07T06:05:46;-7.20;99.90
24614;DHT22;12760;46.296;25.290;2023-02-07T06:08:12;-7.20;99.90
24614;DHT22;12760;46.296;25.290;2023-02-07T06:10:37;-7.20;99.90
24614;DHT22;12760;46.296;25.290;2023-02-07T06:13:03;-7.10;99.90
24614;DHT22;12760;46.296;25.290;2023-02-07T06:15:29;-7.00;99.90
24614;DHT22;12760;46.296;25.290;2023-02-07T06:17:54;-7.00;99.90
24614;DHT22;12760;46.296;25.290;2023-02-07T06:20:20;-7.00;99.90
24614;DHT22;12760;46.296;25.290;2023-02-07T06:22:47;-7.00;99.90
24614;DHT22;12760;46.296;25.290;2023-02-07T06:25:13;-6.90;99.90
24614;DHT22;12760;46.296;25.290;2023-02-07T06:27:39;-6.90;99.90
24614;DHT22;12760;46.296;25.290;2023-02-07T06:30:06;-6.90;99.90
24614;DHT22;12760;46.296;25.290;2023-02-07T06:32:33;-6.90;99.90
24614;DHT22;12760;46.296;25.290;2023-02-07T06:34:58;-7.00;99.90
24614;DHT22;12760;46.296;25.290;2023-02-07T06:37:24;-7.00;99.90
24614;DHT22;12760;46.296;25.290;2023-02-07T06:39:50;-6.90;99.90
24614;DHT22;12760;46.296;25.290;2023-02-07T06:42:15;-6.90;99.90
24614;DHT22;12760;46.296;25.290;2023-02-07T06:44:41;-6.80;99.90
24614;DHT22;12760;46.296;25.290;2023-02-07T06:47:07;-6.70;99.90
24614;DHT22;12760;46.296;25.290;2023-02-07T06:49:33;-6.70;99.90
24614;DHT22;12760;46.296;25.290;2023-02-07T06:51:58;-6.80;99.90
24614;DHT22;12760;46.296;25.290;2023-02-07T06:54:24;-6.80;99.90
24614;DHT22;12760;46.296;25.290;2023-02-07T06:56:50;-6.80;99.90
24614;DHT22;12760;46.296;25.290;2023-02-07T06:59:15;-6.80;99.90
24614;DHT22;12760;46.296;25.290;2023-02-07T07:01:41;-6.80;99.90
24614;DHT22;12760;46.296;25.290;2023-02-07T07:04:07;-6.70;99.90
24614;DHT22;12760;46.296;25.290;2023-02-07T07:06:33;-6.60;99.90
24614;DHT22;12760;46.296;25.290;2023-02-07T07:08:58;-6.60;99.90
24614;DHT22;12760;46.296;25.290;2023-02-07T07:11:24;-6.60;99.90
24614;DHT22;12760;46.296;25.290;2023-02-07T07:13:50;-6.60;99.90
24614;DHT22;12760;46.296;25.290;2023-02-07T07:16:15;-6.50;99.90
24614;DHT22;12760;46.296;25.290;2023-02-07T07:18:41;-6.30;99.90
24614;DHT22;12760;46.296;25.290;2023-02-07T07:21:08;-6.20;99.90
24614;DHT22;12760;46.296;25.290;2023-02-07T07:23:34;-6.10;99.90
24614;DHT22;12760;46.296;25.290;2023-02-07T07:25:59;-6.20;99.90
24614;DHT22;12760;46.296;25.290;2023-02-07T07:28:25;-6.10;99.90
24614;DHT22;12760;46.296;25.290;2023-02-07T07:30:51;-5.90;99.90
24614;DHT22;12760;46.296;25.290;2023-02-07T07:33:16;-5.80;99.90
24614;DHT22;12760;46.296;25.290;2023-02-07T07:35:42;-5.60;99.90
24614;DHT22;12760;46.296;25.290;2023-02-07T07:38:08;-5.60;99.90
24614;DHT22;12760;46.296;25.290;2023-02-07T07:40:33;-5.40;99.90
24614;DHT22;12760;46.296;25.290;2023-02-07T07:42:59;-5.40;99.90
24614;DHT22;12760;46.296;25.290;2023-02-07T07:45:25;-5.50;99.90
24614;DHT22;12760;46.296;25.290;2023-02-07T07:47:50;-5.50;99.90
24614;DHT22;12760;46.296;25.290;2023-02-07T07:50:16;-5.70;99.90
24614;DHT22;12760;46.296;25.290;2023-02-07T07:52:42;-5.60;99.90
24614;DHT22;12760;46.296;25.290;2023-02-07T07:55:08;-5.40;99.90
24614;DHT22;12760;46.296;25.290;2023-02-07T07:57:34;-5.40;99.90
24614;DHT22;12760;46.296;25.290;2023-02-07T08:00:00;-5.50;99.90
24614;DHT22;12760;46.296;25.290;2023-02-07T08:02:26;-5.50;99.90
24614;DHT22;12760;46.296;25.290;2023-02-07T08:04:52;-5.50;99.90
24614;DHT22;12760;46.296;25.290;2023-02-07T08:07:18;-5.60;99.90
24614;DHT22;12760;46.296;25.290;2023-02-07T08:09:44;-5.40;99.90
24614;DHT22;12760;46.296;25.290;2023-02-07T08:12:09;-5.10;99.90
24614;DHT22;12760;46.296;25.290;2023-02-07T08:14:35;-4.90;99.90
24614;DHT22;12760;46.296;25.290;2023-02-07T08:17:01;-4.80;99.90
24614;DHT22;12760;46.296;25.290;2023-02-07T08:19:26;-4.70;99.90
24614;DHT22;12760;46.296;25.290;2023-02-07T08:21:52;-4.70;99.90
24614;DHT22;12760;46.296;25.290;2023-02-07T08:24:18;-4.50;99.90
24614;DHT22;12760;46.296;25.290;2023-02-07T08:26:43;-4.70;99.90
24614;DHT22;12760;46.296;25.290;2023-02-07T08:29:09;-4.60;99.90
24614;DHT22;12760;46.296;25.290;2023-02-07T08:31:35;-4.50;99.90
24614;DHT22;12760;46.296;25.290;2023-02-07T08:34:01;-4.40;99.90
24614;DHT22;12760;46.296;25.290;2023-02-07T08:36:27;-4.40;99.90
24614;DHT22;12760;46.296;25.290;2023-02-07T08:38:52;-4.20;99.90
24614;DHT22;12760;46.296;25.290;2023-02-07T08:41:18;-4.10;99.90
24614;DHT22;12760;46.296;25.290;2023-02-07T08:43:44;-4.10;99.90
24614;DHT22;12760;46.296;25.290;2023-02-07T08:46:12;-4.00;99.90
24614;DHT22;12760;46.296;25.290;2023-02-07T08:48:38;-4.00;99.90
24614;DHT22;12760;46.296;25.290;2023-02-07T08:51:06;-3.90;99.90
24614;DHT22;12760;46.296;25.290;2023-02-07T08:53:32;-3.90;99.90
24614;DHT22;12760;46.296;25.290;2023-02-07T08:55:57;-3.90;99.90
24614;DHT22;12760;46.296;25.290;2023-02-07T08:58:23;-3.90;99.90
24614;DHT22;12760;46.296;25.290;2023-02-07T09:00:49;-3.80;99.90
24614;DHT22;12760;46.296;25.290;2023-02-07T09:03:15;-3.80;99.90
24614;DHT22;12760;46.296;25.290;2023-02-07T09:05:41;-3.70;99.90
24614;DHT22;12760;46.296;25.290;2023-02-07T09:08:07;-3.70;99.90
24614;DHT22;12760;46.296;25.290;2023-02-07T09:10:32;-3.70;99.90
24614;DHT22;12760;46.296;25.290;2023-02-07T09:12:58;-3.70;99.90
24614;DHT22;12760;46.296;25.290;2023-02-07T09:15:24;-3.70;99.90
24614;DHT22;12760;46.296;25.290;2023-02-07T09:17:50;-3.50;99.90
24614;DHT22;12760;46.296;25.290;2023-02-07T09:20:16;-3.60;99.90
24614;DHT22;12760;46.296;25.290;2023-02-07T09:22:42;-3.60;99.90
24614;DHT22;12760;46.296;25.290;2023-02-07T09:25:27;-3.40;99.90
24614;DHT22;12760;46.296;25.290;2023-02-07T09:27:53;-3.30;99.90
24614;DHT22;12760;46.296;25.290;2023-02-07T09:30:20;-3.10;99.90
24614;DHT22;12760;46.296;25.290;2023-02-07T09:32:45;-3.00;99.90
24614;DHT22;12760;46.296;25.290;2023-02-07T09:35:11;-2.90;99.90
24614;DHT22;12760;46.296;25.290;2023-02-07T09:37:37;-2.90;99.90
24614;DHT22;12760;46.296;25.290;2023-02-07T09:40:04;-2.80;99.90
24614;DHT22;12760;46.296;25.290;2023-02-07T09:42:38;-2.70;99.90
24614;DHT22;12760;46.296;25.290;2023-02-07T09:45:15;-2.70;99.90
24614;DHT22;12760;46.296;25.290;2023-02-07T09:47:43;-2.60;99.90
24614;DHT22;12760;46.296;25.290;2023-02-07T09:50:33;-2.50;99.90
24614;DHT22;12760;46.296;25.290;2023-02-07T09:53:04;-2.50;99.90
24614;DHT22;12760;46.296;25.290;2023-02-07T09:58:13;-2.50;99.90
24614;DHT22;12760;46.296;25.290;2023-02-07T10:00:39;-2.50;99.90
24614;DHT22;12760;46.296;25.290;2023-02-07T10:03:21;-2.40;99.90
24614;DHT22;12760;46.296;25.290;2023-02-07T10:06:06;-2.30;99.90
24614;DHT22;12760;46.296;25.290;2023-02-07T10:08:37;-2.30;99.90
24614;DHT22;12760;46.296;25.290;2023-02-07T10:11:32;-2.20;99.90
24614;DHT22;12760;46.296;25.290;2023-02-07T10:14:21;-2.20;99.90
24614;DHT22;12760;46.296;25.290;2023-02-07T10:23:01;-1.90;99.90
24614;DHT22;12760;46.296;25.290;2023-02-07T10:30:54;-2.20;99.90
24614;DHT22;12760;46.296;25.290;2023-02-07T10:33:26;-2.10;99.90
24614;DHT22;12760;46.296;25.290;2023-02-07T10:35:54;-2.00;99.90
24614;DHT22;12760;46.296;25.290;2023-02-07T10:38:34;-1.90;99.90
24614;DHT22;12760;46.296;25.290;2023-02-07T10:41:12;-1.90;99.90
24614;DHT22;12760;46.296;25.290;2023-02-07T10:43:41;-1.70;99.90
24614;DHT22;12760;46.296;25.290;2023-02-07T10:46:10;-1.60;99.90
24614;DHT22;12760;46.296;25.290;2023-02-07T10:48:38;-1.50;99.90
24614;DHT22;12760;46.296;25.290;2023-02-07T10:53:48;-1.50;99.90
24614;DHT22;12760;46.296;25.290;2023-02-07T10:56:26;-1.40;99.90
24614;DHT22;12760;46.296;25.290;2023-02-07T10:58:52;-1.50;99.90
24614;DHT22;12760;46.296;25.290;2023-02-07T11:01:25;-1.60;99.90
24614;DHT22;12760;46.296;25.290;2023-02-07T11:03:52;-1.50;99.90
24614;DHT22;12760;46.296;25.290;2023-02-07T11:06:30;-1.50;99.90
24614;DHT22;12760;46.296;25.290;2023-02-07T11:09:22;-1.40;99.90
24614;DHT22;12760;46.296;25.290;2023-02-07T11:11:52;-1.40;99.90
24614;DHT22;12760;46.296;25.290;2023-02-07T11:14:21;-1.40;99.90
24614;DHT22;12760;46.296;25.290;2023-02-07T11:16:55;-1.40;99.90
24614;DHT22;12760;46.296;25.290;2023-02-07T11:19:24;-1.30;99.90
24614;DHT22;12760;46.296;25.290;2023-02-07T11:21:55;-1.20;99.90
24614;DHT22;12760;46.296;25.290;2023-02-07T11:24:30;-1.20;99.90
24614;DHT22;12760;46.296;25.290;2023-02-07T11:27:19;-1.20;99.90
24614;DHT22;12760;46.296;25.290;2023-02-07T11:29:55;-1.10;99.90
24614;DHT22;12760;46.296;25.290;2023-02-07T11:32:22;-1.00;99.90
24614;DHT22;12760;46.296;25.290;2023-02-07T11:34:55;-1.00;99.90
24614;DHT22;12760;46.296;25.290;2023-02-07T11:37:31;-0.90;99.90
24614;DHT22;12760;46.296;25.290;2023-02-07T11:43:17;-0.90;99.90
24614;DHT22;12760;46.296;25.290;2023-02-07T11:45:46;-0.90;99.90
24614;DHT22;12760;46.296;25.290;2023-02-07T11:48:23;-0.90;99.90
24614;DHT22;12760;46.296;25.290;2023-02-07T11:51:01;-0.90;99.90
24614;DHT22;12760;46.296;25.290;2023-02-07T11:53:39;-0.80;99.90
24614;DHT22;12760;46.296;25.290;2023-02-07T11:56:06;-1.00;99.90
24614;DHT22;12760;46.296;25.290;2023-02-07T11:58:45;-1.00;99.90
24614;DHT22;12760;46.296;25.290;2023-02-07T12:01:18;-1.00;99.90
24614;DHT22;12760;46.296;25.290;2023-02-07T12:03:51;-1.00;99.90
24614;DHT22;12760;46.296;25.290;2023-02-07T12:06:24;-1.00;99.90
24614;DHT22;12760;46.296;25.290;2023-02-07T12:08:54;-0.90;99.90
24614;DHT22;12760;46.296;25.290;2023-02-07T12:11:23;-0.80;99.90
24614;DHT22;12760;46.296;25.290;2023-02-07T12:13:57;-0.70;99.90
24614;DHT22;12760;46.296;25.290;2023-02-07T12:16:27;-0.80;99.90
24614;DHT22;12760;46.296;25.290;2023-02-07T12:21:24;-0.70;99.90
24614;DHT22;12760;46.296;25.290;2023-02-07T12:24:16;-0.60;99.90
24614;DHT22;12760;46.296;25.290;2023-02-07T12:26:53;-0.50;99.90
24614;DHT22;12760;46.296;25.290;2023-02-07T12:32:32;-0.40;99.90
24614;DHT22;12760;46.296;25.290;2023-02-07T12:43:27;-0.20;99.90
24614;DHT22;12760;46.296;25.290;2023-02-07T12:53:55;-0.20;99.90
24614;DHT22;12760;46.296;25.290;2023-02-07T13:02:11;-0.20;99.90
24614;DHT22;12760;46.296;25.290;2023-02-07T13:05:10;-0.20;99.90
24614;DHT22;12760;46.296;25.290;2023-02-07T13:10:55;-0.20;99.90
24614;DHT22;12760;46.296;25.290;2023-02-07T13:13:51;-0.20;99.90
24614;DHT22;12760;46.296;25.290;2023-02-07T13:21:59;-0.20;99.90
24614;DHT22;12760;46.296;25.290;2023-02-07T13:24:27;-0.20;99.90
24614;DHT22;12760;46.296;25.290;2023-02-07T13:26:57;-0.20;99.90
24614;DHT22;12760;46.296;25.290;2023-02-07T13:29:26;-0.20;99.90
24614;DHT22;12760;46.296;25.290;2023-02-07T13:32:13;-0.10;99.90
24614;DHT22;12760;46.296;25.290;2023-02-07T13:34:49;-0.20;99.90
24614;DHT22;12760;46.296;25.290;2023-02-07T13:37:17;-0.20;99.90
24614;DHT22;12760;46.296;25.290;2023-02-07T13:39:55;-0.20;99.90
24614;DHT22;12760;46.296;25.290;2023-02-07T13:42:24;-0.30;99.90
24614;DHT22;12760;46.296;25.290;2023-02-07T13:45:09;-0.30;99.90
24614;DHT22;12760;46.296;25.290;2023-02-07T13:55:33;-0.30;99.90
24614;DHT22;12760;46.296;25.290;2023-02-07T13:58:02;-0.30;99.90
24614;DHT22;12760;46.296;25.290;2023-02-07T14:03:38;-0.20;99.90
24614;DHT22;12760;46.296;25.290;2023-02-07T14:06:27;-0.20;99.90
24614;DHT22;12760;46.296;25.290;2023-02-07T14:11:43;-0.30;99.90
24614;DHT22;12760;46.296;25.290;2023-02-07T14:17:01;-0.40;99.90
24614;DHT22;12760;46.296;25.290;2023-02-07T14:19:50;-0.60;99.90
24614;DHT22;12760;46.296;25.290;2023-02-07T14:25:18;-0.50;99.90
24614;DHT22;12760;46.296;25.290;2023-02-07T14:30:26;-0.50;99.90
24614;DHT22;12760;46.296;25.290;2023-02-07T14:36:03;-0.50;99.90
24614;DHT22;12760;46.296;25.290;2023-02-07T14:38:36;-0.40;99.90
24614;DHT22;12760;46.296;25.290;2023-02-07T14:41:05;-0.40;99.90
24614;DHT22;12760;46.296;25.290;2023-02-07T14:43:53;-0.40;99.90
24614;DHT22;12760;46.296;25.290;2023-02-07T14:46:27;-0.50;99.90
24614;DHT22;12760;46.296;25.290;2023-02-07T14:49:00;-0.60;99.90
24614;DHT22;12760;46.296;25.290;2023-02-07T14:57:17;-0.60;99.90
24614;DHT22;12760;46.296;25.290;2023-02-07T15:02:30;-0.60;99.90
24614;DHT22;12760;46.296;25.290;2023-02-07T15:04:56;-0.60;99.90
24614;DHT22;12760;46.296;25.290;2023-02-07T15:07:22;-0.60;99.90
24614;DHT22;12760;46.296;25.290;2023-02-07T15:09:48;-0.60;99.90
24614;DHT22;12760;46.296;25.290;2023-02-07T15:12:24;-0.60;99.90
24614;DHT22;12760;46.296;25.290;2023-02-07T15:14:53;-0.60;99.90
24614;DHT22;12760;46.296;25.290;2023-02-07T15:17:22;-0.60;99.90
24614;DHT22;12760;46.296;25.290;2023-02-07T15:19:48;-0.60;99.90
24614;DHT22;12760;46.296;25.290;2023-02-07T15:22:24;-0.60;99.90
24614;DHT22;12760;46.296;25.290;2023-02-07T15:24:55;-0.60;99.90
24614;DHT22;12760;46.296;25.290;2023-02-07T15:27:25;-0.50;99.90
24614;DHT22;12760;46.296;25.290;2023-02-07T15:29:55;-0.60;99.90
24614;DHT22;12760;46.296;25.290;2023-02-07T15:32:23;-0.60;99.90
24614;DHT22;12760;46.296;25.290;2023-02-07T15:34:49;-0.60;99.90
24614;DHT22;12760;46.296;25.290;2023-02-07T15:37:19;-0.60;99.90
24614;DHT22;12760;46.296;25.290;2023-02-07T15:39:46;-0.60;99.90
24614;DHT22;12760;46.296;25.290;2023-02-07T15:42:16;-0.70;99.90
24614;DHT22;12760;46.296;25.290;2023-02-07T15:49:58;-0.70;99.90
24614;DHT22;12760;46.296;25.290;2023-02-07T15:52:33;-0.70;99.90
24614;DHT22;12760;46.296;25.290;2023-02-07T15:55:03;-0.70;99.90
24614;DHT22;12760;46.296;25.290;2023-02-07T15:57:35;-0.70;99.90
24614;DHT22;12760;46.296;25.290;2023-02-07T16:02:41;-0.70;99.90
24614;DHT22;12760;46.296;25.290;2023-02-07T16:07:56;-0.70;99.90
24614;DHT22;12760;46.296;25.290;2023-02-07T16:13:00;-0.70;99.90
24614;DHT22;12760;46.296;25.290;2023-02-07T16:15:30;-0.70;99.90
24614;DHT22;12760;46.296;25.290;2023-02-07T16:17:57;-0.70;99.90
24614;DHT22;12760;46.296;25.290;2023-02-07T16:20:25;-0.70;99.90
24614;DHT22;12760;46.296;25.290;2023-02-07T16:22:59;-0.70;99.90
24614;DHT22;12760;46.296;25.290;2023-02-07T16:25:34;-0.70;99.90
24614;DHT22;12760;46.296;25.290;2023-02-07T16:28:03;-0.70;99.90
24614;DHT22;12760;46.296;25.290;2023-02-07T16:30:34;-0.80;99.90
24614;DHT22;12760;46.296;25.290;2023-02-07T16:33:10;-0.80;99.90
24614;DHT22;12760;46.296;25.290;2023-02-07T16:35:36;-0.90;99.90
24614;DHT22;12760;46.296;25.290;2023-02-07T16:38:01;-1.00;99.90
24614;DHT22;12760;46.296;25.290;2023-02-07T16:40:27;-1.00;99.90
24614;DHT22;12760;46.296;25.290;2023-02-07T16:42:54;-1.00;99.90
24614;DHT22;12760;46.296;25.290;2023-02-07T16:45:27;-1.00;99.90
24614;DHT22;12760;46.296;25.290;2023-02-07T16:47:55;-0.90;99.90
24614;DHT22;12760;46.296;25.290;2023-02-07T16:50:23;-1.00;99.90
24614;DHT22;12760;46.296;25.290;2023-02-07T16:52:51;-1.10;99.90
24614;DHT22;12760;46.296;25.290;2023-02-07T16:55:18;-1.40;99.90
24614;DHT22;12760;46.296;25.290;2023-02-07T16:57:46;-1.40;99.90
24614;DHT22;12760;46.296;25.290;2023-02-07T17:00:18;-1.30;99.90
24614;DHT22;12760;46.296;25.290;2023-02-07T17:02:45;-1.20;99.90
24614;DHT22;12760;46.296;25.290;2023-02-07T17:05:14;-1.10;99.90
24614;DHT22;12760;46.296;25.290;2023-02-07T17:07:40;-1.10;99.90
24614;DHT22;12760;46.296;25.290;2023-02-07T17:10:28;-1.10;99.90
24614;DHT22;12760;46.296;25.290;2023-02-07T17:12:54;-1.10;99.90
24614;DHT22;12760;46.296;25.290;2023-02-07T17:15:20;-1.10;99.90
24614;DHT22;12760;46.296;25.290;2023-02-07T17:17:46;-1.10;99.90
24614;DHT22;12760;46.296;25.290;2023-02-07T17:20:25;-1.10;99.90
24614;DHT22;12760;46.296;25.290;2023-02-07T17:22:52;-1.20;99.90
24614;DHT22;12760;46.296;25.290;2023-02-07T17:25:20;-1.30;99.90
24614;DHT22;12760;46.296;25.290;2023-02-07T17:27:47;-1.30;99.90
24614;DHT22;12760;46.296;25.290;2023-02-07T17:30:19;-1.30;99.90
24614;DHT22;12760;46.296;25.290;2023-02-07T17:32:45;-1.40;99.90
24614;DHT22;12760;46.296;25.290;2023-02-07T17:35:11;-1.30;99.90
24614;DHT22;12760;46.296;25.290;2023-02-07T17:37:37;-1.30;99.90
24614;DHT22;12760;46.296;25.290;2023-02-07T17:40:05;-1.30;99.90
24614;DHT22;12760;46.296;25.290;2023-02-07T17:42:38;-1.30;99.90
24614;DHT22;12760;46.296;25.290;2023-02-07T17:45:03;-1.20;99.90
24614;DHT22;12760;46.296;25.290;2023-02-07T17:47:29;-1.40;99.90
24614;DHT22;12760;46.296;25.290;2023-02-07T17:49:55;-1.40;99.90
24614;DHT22;12760;46.296;25.290;2023-02-07T17:52:20;-1.30;99.90